Time;durP1;ratioP1;P1;durP2;ratioP2;P2;SDS_P1;SDS_P2;PMS_P1;PMS_P2;Temp;Humidity;BMP_temperature;BMP_pressure;BME280_temperature;BME280_humidity;BME280_pressure;Samples;Min_cycle;Max_cycle;Signal;HPM_P1;HPM_P2
2022/05/18 00:00:51;;;;;;;10.60;5.97;;;18.20;99.90;;;;;;4954546;28;20046;-60
2022/05/18 00:03:24;;;;;;;9.88;5.57;;;18.20;99.90;;;;;;4971883;28;20110;-61
2022/05/18 00:05:50;;;;;;;12.68;6.10;;;18.10;99.90;;;;;;4972029;28;20118;-61
2022/05/18 00:08:16;;;;;;;10.40;6.03;;;18.10;99.90;;;;;;4972035;28;20118;-60
2022/05/18 00:10:45;;;;;;;10.30;5.82;;;18.00;99.90;;;;;;4954685;28;20043;-60
2022/05/18 00:13:11;;;;;;;10.80;6.03;;;18.00;99.90;;;;;;4971732;28;20133;-60
2022/05/18 00:15:39;;;;;;;9.65;5.95;;;18.00;99.90;;;;;;4972130;28;20034;-60
2022/05/18 00:18:05;;;;;;;12.13;6.35;;;17.90;99.90;;;;;;4971865;28;20439;-62
2022/05/18 00:20:32;;;;;;;13.52;7.47;;;17.90;99.90;;;;;;4971599;28;20398;-62
2022/05/18 00:23:03;;;;;;;13.30;6.38;;;17.90;99.90;;;;;;4971947;28;20518;-60
2022/05/18 00:25:36;;;;;;;10.90;6.30;;;17.80;99.90;;;;;;4972021;28;20122;-60
2022/05/18 00:28:02;;;;;;;10.27;6.10;;;17.90;99.90;;;;;;4971526;28;20049;-60
2022/05/18 00:30:30;;;;;;;11.68;6.35;;;17.80;99.90;;;;;;4971519;28;20043;-61
2022/05/18 00:32:56;;;;;;;10.68;6.13;;;17.80;99.90;;;;;;4971749;28;20118;-60
2022/05/18 00:35:25;;;;;;;12.07;6.03;;;17.70;99.90;;;;;;4971391;28;20065;-59
2022/05/18 00:37:50;;;;;;;11.15;6.18;;;17.70;99.90;;;;;;4971830;28;20156;-60
2022/05/18 00:40:17;;;;;;;10.77;6.30;;;17.60;99.90;;;;;;4972055;28;20137;-61
2022/05/18 00:42:43;;;;;;;10.65;6.22;;;17.60;99.90;;;;;;4971487;28;20034;-61
2022/05/18 00:45:10;;;;;;;10.57;6.40;;;17.60;99.90;;;;;;4954552;28;20081;-60
2022/05/18 00:47:36;;;;;;;9.25;5.53;;;17.60;99.90;;;;;;4974853;28;20122;-61
2022/05/18 00:50:11;;;;;;;12.85;6.25;;;17.50;99.90;;;;;;4975627;28;20074;-60
2022/05/18 00:52:42;;;;;;;11.23;7.00;;;17.40;99.90;;;;;;4975422;28;20069;-59
2022/05/18 00:55:12;;;;;;;9.48;6.13;;;17.40;99.90;;;;;;4975097;28;20094;-61
2022/05/18 00:57:50;;;;;;;10.07;6.30;;;17.40;99.90;;;;;;4974825;28;20133;-59
2022/05/18 01:00:19;;;;;;;11.40;6.55;;;17.40;99.90;;;;;;4975185;28;20035;-60
2022/05/18 01:02:51;;;;;;;11.00;6.57;;;17.30;99.90;;;;;;4973878;28;20031;-59
2022/05/18 01:05:22;;;;;;;10.02;6.53;;;17.30;99.90;;;;;;4975027;28;20082;-58
2022/05/18 01:07:53;;;;;;;12.57;6.78;;;17.30;99.90;;;;;;4974992;28;20043;-61
2022/05/18 01:10:19;;;;;;;11.35;6.47;;;17.20;99.90;;;;;;4975040;28;20090;-58
2022/05/18 01:12:46;;;;;;;12.60;6.78;;;17.20;99.90;;;;;;4973829;28;20042;-59
2022/05/18 01:15:16;;;;;;;12.13;7.15;;;17.10;99.90;;;;;;4974779;28;20071;-59
2022/05/18 01:17:45;;;;;;;11.18;6.40;;;17.00;99.90;;;;;;4975064;28;20070;-61
2022/05/18 01:20:19;;;;;;;11.25;6.72;;;17.10;99.90;;;;;;4974932;28;20057;-59
2022/05/18 01:23:15;;;;;;;13.63;7.07;;;17.00;99.90;;;;;;4974579;28;20053;-59
2022/05/18 01:25:50;;;;;;;11.15;6.85;;;17.00;99.90;;;;;;4974809;28;20042;-61
2022/05/18 01:28:16;;;;;;;14.25;7.30;;;17.00;99.90;;;;;;4974041;28;20053;-59
2022/05/18 01:30:46;;;;;;;12.43;6.97;;;17.00;99.90;;;;;;4957030;28;20042;-60
2022/05/18 01:33:13;;;;;;;16.02;7.13;;;16.90;99.90;;;;;;4973464;28;20126;-60
2022/05/18 01:35:43;;;;;;;14.27;7.43;;;16.80;99.90;;;;;;4974338;28;20045;-60
2022/05/18 01:38:12;;;;;;;12.07;7.30;;;16.90;99.90;;;;;;4974438;28;20130;-59
2022/05/18 01:41:05;;;;;;;11.95;6.80;;;16.80;99.90;;;;;;4974662;28;20031;-60
2022/05/18 01:43:47;;;;;;;13.52;6.90;;;16.80;99.90;;;;;;4974395;28;20038;-60
2022/05/18 01:46:15;;;;;;;13.00;7.20;;;16.70;99.90;;;;;;4974145;28;20030;-60
2022/05/18 01:48:45;;;;;;;10.68;6.88;;;16.70;99.90;;;;;;4956751;28;20051;-60
2022/05/18 01:51:12;;;;;;;12.75;7.25;;;16.60;99.90;;;;;;4974264;28;20049;-60
2022/05/18 01:53:38;;;;;;;12.20;7.25;;;16.60;99.90;;;;;;4973869;28;20057;-59
2022/05/18 01:56:04;;;;;;;11.13;7.25;;;16.60;99.90;;;;;;4973867;28;20043;-59
2022/05/18 01:58:30;;;;;;;11.27;7.30;;;16.50;99.90;;;;;;4973081;28;20041;-60
2022/05/18 02:00:56;;;;;;;12.90;7.40;;;16.50;99.90;;;;;;4974174;28;20039;-59
2022/05/18 02:03:23;;;;;;;15.00;7.88;;;16.40;99.90;;;;;;4956871;28;20426;-59
2022/05/18 02:05:50;;;;;;;13.25;8.18;;;16.30;99.90;;;;;;4974023;28;20042;-59
2022/05/18 02:08:16;;;;;;;16.35;8.40;;;16.40;99.90;;;;;;4973633;28;20133;-59
2022/05/18 02:10:43;;;;;;;11.68;7.55;;;16.40;99.90;;;;;;4974048;28;20071;-60
2022/05/18 02:13:10;;;;;;;11.95;8.18;;;16.40;99.90;;;;;;4973856;28;20045;-60
2022/05/18 02:15:36;;;;;;;14.20;7.88;;;16.40;99.90;;;;;;4973941;28;20085;-60
2022/05/18 02:18:02;;;;;;;14.43;8.13;;;16.40;99.90;;;;;;4973813;28;20042;-58
2022/05/18 02:20:27;;;;;;;16.23;8.77;;;16.30;99.90;;;;;;4973862;28;20053;-58
2022/05/18 02:22:53;;;;;;;13.25;7.85;;;16.30;99.90;;;;;;4973554;28;20494;-59
2022/05/18 02:25:19;;;;;;;10.32;8.13;;;16.30;99.90;;;;;;4972120;28;20035;-60
2022/05/18 02:27:47;;;;;;;11.48;8.02;;;16.30;99.90;;;;;;4953076;28;20051;-60
2022/05/18 02:30:14;;;;;;;12.23;8.48;;;16.20;99.90;;;;;;4973885;28;20046;-60
2022/05/18 02:32:40;;;;;;;14.48;8.05;;;16.20;99.90;;;;;;4959529;28;20043;-59
2022/05/18 02:35:06;;;;;;;13.52;8.75;;;16.20;99.90;;;;;;4954708;28;20102;-60
2022/05/18 02:37:33;;;;;;;15.38;7.88;;;16.20;99.90;;;;;;4972076;28;20049;-60
2022/05/18 02:39:59;;;;;;;13.35;8.35;;;16.20;99.90;;;;;;4973341;28;20050;-60
2022/05/18 02:42:25;;;;;;;12.80;8.07;;;16.20;99.90;;;;;;4973629;28;20475;-61
2022/05/18 02:44:50;;;;;;;11.05;8.05;;;16.20;99.90;;;;;;4973495;28;20050;-59
2022/05/18 02:47:18;;;;;;;13.40;8.73;;;16.10;99.90;;;;;;4972868;28;20039;-61
2022/05/18 02:49:44;;;;;;;10.18;7.88;;;16.10;99.90;;;;;;4973132;28;20055;-59
2022/05/18 02:52:10;;;;;;;15.85;8.60;;;16.00;99.90;;;;;;4973340;28;20046;-59
2022/05/18 02:57:20;;;;;;;14.48;8.52;;;15.90;99.90;;;;;;4972777;28;20475;-59
2022/05/18 02:59:46;;;;;;;14.82;8.60;;;16.00;99.90;;;;;;4971844;28;20101;-60
2022/05/18 03:02:13;;;;;;;14.20;8.88;;;15.90;99.90;;;;;;4973020;28;20034;-59
2022/05/18 03:04:38;;;;;;;13.77;8.38;;;15.80;99.90;;;;;;4972882;28;20038;-59
2022/05/18 03:07:05;;;;;;;13.70;8.80;;;15.70;99.90;;;;;;4972936;28;20073;-60
2022/05/18 03:09:30;;;;;;;12.73;8.45;;;15.70;99.90;;;;;;4972145;28;20043;-60
2022/05/18 03:11:56;;;;;;;12.27;8.65;;;15.70;99.90;;;;;;4972926;28;20050;-60
2022/05/18 03:14:23;;;;;;;16.05;9.75;;;15.60;99.90;;;;;;4972562;28;20117;-60
2022/05/18 03:16:50;;;;;;;13.00;8.93;;;15.50;99.90;;;;;;4972657;28;20054;-59
2022/05/18 03:19:16;;;;;;;15.43;9.30;;;15.50;99.90;;;;;;4972641;28;20126;-61
2022/05/18 03:24:26;;;;;;;15.48;9.43;;;15.50;99.90;;;;;;4972476;28;20054;-61
2022/05/18 03:26:52;;;;;;;16.10;10.15;;;15.40;99.90;;;;;;4971978;28;20027;-59
2022/05/18 03:29:18;;;;;;;16.45;9.18;;;15.50;99.90;;;;;;4972487;28;20050;-60
2022/05/18 03:31:48;;;;;;;13.23;9.73;;;15.40;99.90;;;;;;4955353;28;20490;-59
2022/05/18 03:34:14;;;;;;;14.40;9.13;;;15.40;99.90;;;;;;4972462;28;20471;-60
2022/05/18 03:36:40;;;;;;;16.20;10.07;;;15.40;99.90;;;;;;4954379;28;20391;-60
2022/05/18 03:39:07;;;;;;;12.93;8.98;;;15.30;99.90;;;;;;4972521;28;20121;-60
2022/05/18 03:41:36;;;;;;;17.20;9.90;;;15.40;99.90;;;;;;4972151;28;20042;-61
2022/05/18 03:44:03;;;;;;;14.55;10.52;;;15.30;99.90;;;;;;4955168;28;20045;-60
2022/05/18 03:46:29;;;;;;;13.30;9.60;;;15.30;99.90;;;;;;4972106;28;20105;-60
2022/05/18 03:48:54;;;;;;;12.35;9.48;;;15.20;99.90;;;;;;4972307;28;20042;-60
2022/05/18 03:51:20;;;;;;;14.95;10.55;;;15.20;99.90;;;;;;4972408;28;20122;-60
2022/05/18 03:53:46;;;;;;;16.15;9.73;;;15.20;99.90;;;;;;4971960;28;20495;-61
2022/05/18 03:56:13;;;;;;;15.85;10.80;;;15.30;99.90;;;;;;4954908;28;20527;-60
2022/05/18 03:58:39;;;;;;;15.63;9.95;;;15.30;99.90;;;;;;4971215;28;20085;-60
2022/05/18 04:01:09;;;;;;;15.90;10.73;;;15.30;99.90;;;;;;4972248;28;20045;-61
2022/05/18 04:03:41;;;;;;;13.82;10.55;;;15.30;99.90;;;;;;4972318;28;20491;-61
2022/05/18 04:06:07;;;;;;;13.55;9.43;;;15.30;99.90;;;;;;4971837;28;20096;-60
2022/05/18 04:08:34;;;;;;;14.20;10.05;;;15.30;99.90;;;;;;4971750;28;20391;-60
2022/05/18 04:11:00;;;;;;;16.58;10.57;;;15.30;99.90;;;;;;4971954;28;20038;-60
2022/05/18 04:13:26;;;;;;;15.48;10.45;;;15.30;99.90;;;;;;4971962;28;20038;-61
2022/05/18 04:15:53;;;;;;;13.77;9.93;;;15.40;99.90;;;;;;4972054;28;20043;-59
2022/05/18 04:18:19;;;;;;;15.25;10.38;;;15.40;99.90;;;;;;4971771;28;20525;-60
2022/05/18 04:20:45;;;;;;;16.17;10.27;;;15.40;99.90;;;;;;4972723;28;20113;-61
2022/05/18 04:23:12;;;;;;;14.88;11.15;;;15.40;99.90;;;;;;4975777;28;20046;-60
2022/05/18 04:25:41;;;;;;;14.38;10.20;;;15.40;99.90;;;;;;4975743;28;20051;-61
2022/05/18 04:28:07;;;;;;;15.27;10.90;;;15.40;99.90;;;;;;4975462;28;20056;-60
2022/05/18 04:30:33;;;;;;;17.05;10.77;;;15.40;99.90;;;;;;4958663;28;20114;-59
2022/05/18 04:33:00;;;;;;;17.30;11.18;;;15.50;99.90;;;;;;4975628;28;20486;-61
2022/05/18 04:35:28;;;;;;;17.35;11.55;;;15.60;99.90;;;;;;4975832;28;20065;-60
2022/05/18 04:37:54;;;;;;;14.82;11.30;;;15.70;99.90;;;;;;4975553;28;20050;-60
2022/05/18 04:40:20;;;;;;;15.23;11.60;;;15.70;99.90;;;;;;4957599;28;20083;-61
2022/05/18 04:42:47;;;;;;;16.02;11.50;;;15.70;99.90;;;;;;4958078;28;20042;-60
2022/05/18 04:45:15;;;;;;;17.40;11.93;;;15.80;99.90;;;;;;4975366;28;20062;-61
2022/05/18 04:47:41;;;;;;;15.10;11.75;;;15.80;99.90;;;;;;4975262;28;20125;-61
2022/05/18 04:50:08;;;;;;;15.10;11.55;;;15.90;99.90;;;;;;4975449;28;20066;-61
2022/05/18 04:52:33;;;;;;;19.02;11.63;;;16.00;99.90;;;;;;4975230;28;20035;-60
2022/05/18 04:54:59;;;;;;;16.02;11.75;;;15.90;99.90;;;;;;4975091;28;20069;-61
2022/05/18 04:57:25;;;;;;;17.80;11.65;;;16.00;99.90;;;;;;4974943;28;20105;-60
2022/05/18 04:59:51;;;;;;;17.08;11.85;;;16.00;99.90;;;;;;4975355;28;20108;-61
2022/05/18 05:02:17;;;;;;;16.88;12.43;;;16.10;99.90;;;;;;4975202;28;20058;-61
2022/05/18 05:04:44;;;;;;;18.13;12.95;;;16.10;99.90;;;;;;4975316;28;20073;-59
2022/05/18 05:07:10;;;;;;;18.05;12.43;;;16.20;99.90;;;;;;4974939;28;20050;-59
2022/05/18 05:09:37;;;;;;;17.17;12.60;;;16.20;99.90;;;;;;4975084;28;20034;-60
2022/05/18 05:12:04;;;;;;;18.85;12.55;;;16.40;99.90;;;;;;4975067;28;20031;-59
2022/05/18 05:14:29;;;;;;;16.17;11.93;;;16.40;99.90;;;;;;4974895;28;20125;-60
2022/05/18 05:16:55;;;;;;;19.73;12.02;;;16.40;99.90;;;;;;4975289;28;20442;-60
2022/05/18 05:19:21;;;;;;;17.50;12.30;;;16.50;99.90;;;;;;4975096;28;20054;-60
2022/05/18 05:21:47;;;;;;;15.77;11.63;;;16.60;99.90;;;;;;4974837;28;20035;-61
2022/05/18 05:24:15;;;;;;;17.90;12.07;;;16.70;99.90;;;;;;4974734;28;20450;-59
2022/05/18 05:26:42;;;;;;;18.25;12.10;;;16.70;99.90;;;;;;4974643;28;20066;-60
2022/05/18 05:29:08;;;;;;;17.98;11.50;;;16.80;99.90;;;;;;4956877;28;20043;-60
2022/05/18 05:31:35;;;;;;;15.85;12.10;;;16.90;99.90;;;;;;4974292;28;20078;-60
2022/05/18 05:34:01;;;;;;;16.90;11.90;;;16.90;99.90;;;;;;4974601;28;20035;-62
2022/05/18 05:36:27;;;;;;;16.05;12.00;;;17.10;99.90;;;;;;4974034;28;20085;-61
2022/05/18 05:38:53;;;;;;;18.30;12.15;;;17.10;99.90;;;;;;4973993;28;20482;-60
2022/05/18 05:41:19;;;;;;;16.67;11.45;;;17.20;99.90;;;;;;4973930;28;20154;-61
2022/05/18 05:43:45;;;;;;;19.52;12.13;;;17.30;99.90;;;;;;4973082;28;20047;-59
2022/05/18 05:46:15;;;;;;;16.92;11.93;;;17.40;99.90;;;;;;4974067;28;20043;-61
2022/05/18 05:48:44;;;;;;;15.07;11.02;;;17.50;99.90;;;;;;4955287;28;20051;-61
2022/05/18 05:51:12;;;;;;;17.58;11.18;;;17.60;99.90;;;;;;4973796;28;20062;-62
2022/05/18 05:53:42;;;;;;;17.70;11.10;;;17.70;99.90;;;;;;4972238;28;20054;-61
2022/05/18 05:56:08;;;;;;;15.10;11.73;;;17.90;99.90;;;;;;4973552;28;20055;-58
2022/05/18 05:58:36;;;;;;;16.05;11.40;;;17.90;99.90;;;;;;4973493;28;20050;-59
2022/05/18 06:01:07;;;;;;;15.15;11.10;;;18.10;99.90;;;;;;4971115;28;20074;-63
2022/05/18 06:03:33;;;;;;;17.27;11.15;;;18.20;99.90;;;;;;4973653;28;20050;-60
2022/05/18 06:06:00;;;;;;;14.55;10.80;;;18.30;99.90;;;;;;4953395;28;20042;-60
2022/05/18 06:08:26;;;;;;;15.48;11.02;;;18.30;99.90;;;;;;4965476;28;20043;-60
2022/05/18 06:10:52;;;;;;;15.63;11.25;;;18.40;99.90;;;;;;4949357;28;20051;-60
2022/05/18 06:13:18;;;;;;;16.65;10.57;;;18.50;99.90;;;;;;4966287;28;20027;-60
2022/05/18 06:15:43;;;;;;;18.15;10.20;;;18.50;99.90;;;;;;4967440;28;20589;-60
2022/05/18 06:18:10;;;;;;;14.25;10.73;;;18.60;99.90;;;;;;4949763;28;20054;-61
2022/05/18 06:20:36;;;;;;;15.93;10.57;;;18.60;99.90;;;;;;4965662;28;20501;-60
2022/05/18 06:23:06;;;;;;;16.88;10.70;;;18.80;99.90;;;;;;4967388;28;20043;-60
2022/05/18 06:25:33;;;;;;;14.07;11.07;;;18.80;99.90;;;;;;4964182;28;20053;-60
2022/05/18 06:27:58;;;;;;;15.23;10.60;;;19.00;99.90;;;;;;4965957;28;20193;-61
2022/05/18 06:30:24;;;;;;;16.83;10.13;;;19.10;99.90;;;;;;4965815;28;20124;-60
2022/05/18 06:32:50;;;;;;;16.30;10.60;;;19.10;99.90;;;;;;4967076;28;20573;-59
2022/05/18 06:35:16;;;;;;;16.08;10.55;;;19.10;99.90;;;;;;4971173;28;20039;-59
2022/05/18 06:37:41;;;;;;;14.00;9.95;;;19.20;99.90;;;;;;4970565;28;20457;-59
2022/05/18 06:40:09;;;;;;;15.82;9.90;;;19.30;99.90;;;;;;4972773;28;20061;-59
2022/05/18 06:42:35;;;;;;;14.73;10.13;;;19.30;99.90;;;;;;4972310;28;20177;-58
2022/05/18 06:45:03;;;;;;;17.65;9.88;;;19.40;99.90;;;;;;4954572;28;20526;-59
2022/05/18 06:47:30;;;;;;;15.77;9.55;;;19.50;99.90;;;;;;4972541;28;20046;-58
2022/05/18 06:49:56;;;;;;;14.38;9.80;;;19.60;99.90;;;;;;4971136;28;20387;-60
2022/05/18 06:52:21;;;;;;;12.82;9.32;;;19.80;99.90;;;;;;4971669;28;20047;-58
2022/05/18 06:54:48;;;;;;;13.60;9.82;;;19.80;99.90;;;;;;4972371;28;20516;-59
2022/05/18 06:57:14;;;;;;;14.82;9.68;;;19.90;99.90;;;;;;4971709;28;20042;-59
2022/05/18 06:59:39;;;;;;;14.23;9.38;;;20.10;99.90;;;;;;4971180;28;20039;-59
2022/05/18 07:02:06;;;;;;;13.88;9.05;;;20.20;99.90;;;;;;4970233;28;20035;-59
2022/05/18 07:04:32;;;;;;;14.55;9.15;;;20.30;99.90;;;;;;4970581;28;20082;-59
2022/05/18 07:07:00;;;;;;;13.10;8.07;;;20.50;99.90;;;;;;4971547;28;20078;-58
2022/05/18 07:09:27;;;;;;;13.15;8.98;;;20.60;99.90;;;;;;4971989;28;20038;-58
2022/05/18 07:11:53;;;;;;;12.55;8.20;;;20.70;99.90;;;;;;4972487;28;20356;-59
2022/05/18 07:14:24;;;;;;;12.98;9.20;;;20.90;99.90;;;;;;4970971;28;20078;-58
2022/05/18 07:16:50;;;;;;;15.25;8.55;;;20.90;99.90;;;;;;4954485;28;20038;-59
2022/05/18 07:19:18;;;;;;;11.38;8.00;;;21.10;99.90;;;;;;4972093;28;20170;-59
2022/05/18 07:21:45;;;;;;;10.68;8.32;;;21.10;99.90;;;;;;4971601;28;20134;-59
2022/05/18 07:24:10;;;;;;;13.55;8.55;;;21.20;99.90;;;;;;4971664;28;20450;-59
2022/05/18 07:26:37;;;;;;;12.18;8.10;;;21.30;99.90;;;;;;4971789;28;20047;-59
2022/05/18 07:29:04;;;;;;;14.13;8.95;;;21.50;99.90;;;;;;4971162;28;20097;-59
2022/05/18 07:32:08;;;;;;;12.82;8.73;;;21.40;99.90;;;;;;4971391;28;20042;-59
2022/05/18 07:34:16;;;;;;;13.23;8.70;;;21.40;99.90;;;;;;4970891;28;20113;-59
2022/05/18 07:36:42;;;;;;;35.67;11.13;;;21.50;99.90;;;;;;4971454;28;20141;-60
2022/05/18 07:39:10;;;;;;;15.60;9.60;;;21.60;99.90;;;;;;4953367;28;20049;-59
2022/05/18 07:41:36;;;;;;;12.88;8.68;;;21.70;99.90;;;;;;4971811;28;20042;-59
2022/05/18 07:44:02;;;;;;;13.57;8.95;;;21.90;99.90;;;;;;4971813;28;20101;-59
2022/05/18 07:46:27;;;;;;;15.02;9.40;;;22.10;99.90;;;;;;4971435;28;20423;-59
2022/05/18 07:48:53;;;;;;;12.02;8.73;;;22.30;99.90;;;;;;4971534;28;20074;-59
2022/05/18 07:51:19;;;;;;;11.30;8.65;;;22.30;99.90;;;;;;4953828;28;20534;-59
2022/05/18 07:53:44;;;;;;;15.43;8.98;;;22.20;99.90;;;;;;4971026;28;20043;-59
2022/05/18 07:56:11;;;;;;;12.43;9.15;;;22.10;99.90;;;;;;4970604;28;20053;-59
2022/05/18 07:58:36;;;;;;;13.32;8.98;;;22.00;99.90;;;;;;4953801;28;20046;-59
2022/05/18 08:01:02;;;;;;;12.00;8.75;;;22.00;99.90;;;;;;4971331;28;20062;-59
2022/05/18 08:03:28;;;;;;;12.68;9.40;;;22.10;99.90;;;;;;4969886;28;20050;-59
2022/05/18 08:05:53;;;;;;;14.05;9.07;;;22.30;99.90;;;;;;4971753;28;20042;-59
2022/05/18 08:08:21;;;;;;;14.10;8.70;;;22.40;99.90;;;;;;4972063;28;20045;-59
2022/05/18 08:16:16;;;;;;;15.63;9.38;;;22.70;99.90;;;;;;4971720;28;20049;-59
2022/05/18 08:18:42;;;;;;;25.92;10.10;;;22.70;99.90;;;;;;4972059;28;20046;-60
2022/05/18 08:21:08;;;;;;;15.35;8.45;;;22.80;99.90;;;;;;4954270;28;20108;-58
2022/05/18 08:23:34;;;;;;;10.57;8.10;;;22.90;99.90;;;;;;4971912;28;20042;-59
2022/05/18 08:26:01;;;;;;;13.43;8.38;;;22.90;99.90;;;;;;4971561;28;20039;-57
2022/05/18 08:28:27;;;;;;;13.85;8.30;;;22.90;99.90;;;;;;4971432;28;20042;-58
2022/05/18 08:30:55;;;;;;;13.27;8.93;;;22.90;99.90;;;;;;4971654;28;20550;-57
2022/05/18 08:33:21;;;;;;;14.02;8.68;;;22.90;99.90;;;;;;4972120;28;20035;-57
2022/05/18 08:35:48;;;;;;;15.10;8.57;;;22.90;99.90;;;;;;4954498;28;20043;-58
2022/05/18 08:38:14;;;;;;;14.38;8.85;;;23.00;99.90;;;;;;4953952;28;20046;-57
2022/05/18 08:40:53;;;;;;;16.83;8.98;;;23.10;99.90;;;;;;4971653;28;20035;-58
2022/05/18 08:43:33;;;;;;;15.38;9.35;;;23.10;99.90;;;;;;4971804;28;20167;-60
2022/05/18 08:46:23;;;;;;;18.85;9.30;;;23.10;99.90;;;;;;4970847;28;20063;-58
2022/05/18 08:49:01;;;;;;;21.00;9.65;;;23.10;99.90;;;;;;4971514;28;20069;-59
2022/05/18 08:51:48;;;;;;;20.08;10.55;;;23.10;99.90;;;;;;4971239;28;20050;-59
2022/05/18 08:54:21;;;;;;;17.23;10.98;;;23.20;99.90;;;;;;4971268;28;20085;-59
2022/05/18 08:56:49;;;;;;;15.05;10.40;;;23.10;99.90;;;;;;4970783;28;20105;-58
2022/05/18 08:59:25;;;;;;;17.50;10.85;;;23.30;99.90;;;;;;4971124;28;20212;-59
2022/05/18 09:01:55;;;;;;;16.67;11.25;;;23.30;99.90;;;;;;4951480;28;20154;-58
2022/05/18 09:04:41;;;;;;;16.60;11.10;;;23.40;99.90;;;;;;4969969;28;20070;-59
2022/05/18 09:07:12;;;;;;;16.30;11.30;;;23.40;99.90;;;;;;4961138;28;20046;-60
2022/05/18 09:10:13;;;;;;;20.30;11.90;;;23.60;99.90;;;;;;4974368;28;20046;-59
2022/05/18 09:12:40;;;;;;;18.58;11.45;;;23.70;99.90;;;;;;4973050;28;20146;-60
2022/05/18 09:15:07;;;;;;;17.35;11.55;;;23.80;99.90;;;;;;4974160;28;20070;-59
2022/05/18 09:17:52;;;;;;;18.35;12.13;;;23.90;99.90;;;;;;4972679;28;20046;-59
2022/05/18 09:20:38;;;;;;;18.77;13.00;;;24.00;99.90;;;;;;4974259;28;20054;-59
2022/05/18 09:23:38;;;;;;;20.75;12.73;;;24.10;99.90;;;;;;4974796;28;20042;-58
2022/05/18 09:26:35;;;;;;;16.27;12.68;;;24.40;99.90;;;;;;4973959;28;20053;-59
2022/05/18 09:29:25;;;;;;;19.23;13.90;;;24.30;99.90;;;;;;4974439;28;20057;-60
2022/05/18 09:32:23;;;;;;;19.52;12.23;;;24.50;99.90;;;;;;4974666;28;20376;-58
2022/05/18 09:35:14;;;;;;;17.55;13.07;;;24.60;99.90;;;;;;4974455;28;20471;-57
2022/05/18 09:38:00;;;;;;;17.30;12.55;;;24.80;99.90;;;;;;4974384;28;20074;-59
2022/05/18 09:40:43;;;;;;;19.38;13.45;;;25.10;99.90;;;;;;4956829;28;20050;-58
2022/05/18 09:43:29;;;;;;;17.67;13.50;;;24.90;99.90;;;;;;4974258;28;20121;-58
2022/05/18 09:45:56;;;;;;;19.83;13.50;;;24.80;99.90;;;;;;4973176;28;20038;-57
2022/05/18 09:48:39;;;;;;;19.67;13.77;;;25.10;99.90;;;;;;4974104;28;20565;-58
2022/05/18 09:51:08;;;;;;;17.08;12.63;;;25.10;99.90;;;;;;4974237;28;20457;-58
2022/05/18 09:53:35;;;;;;;20.92;13.70;;;25.20;99.90;;;;;;4974396;28;20531;-58
2022/05/18 09:56:01;;;;;;;21.05;13.40;;;25.10;99.90;;;;;;4973276;28;20078;-58
2022/05/18 09:58:35;;;;;;;20.65;14.85;;;25.30;99.90;;;;;;4973145;28;20046;-58
2022/05/18 10:09:49;;;;;;;23.77;15.93;;;25.60;99.90;;;;;;4974242;28;20047;-58
2022/05/18 10:12:30;;;;;;;20.75;14.35;;;25.50;99.90;;;;;;4973780;28;20085;-58
2022/05/18 10:15:03;;;;;;;22.08;14.75;;;25.70;99.90;;;;;;4973791;28;20053;-58
2022/05/18 10:17:38;;;;;;;20.83;13.82;;;25.50;99.90;;;;;;4973260;28;20122;-58
2022/05/18 10:20:18;;;;;;;24.70;15.02;;;25.70;99.90;;;;;;4971724;28;20046;-59
2022/05/18 10:22:45;;;;;;;23.65;15.20;;;25.60;99.90;;;;;;4973732;28;20051;-58
2022/05/18 10:25:13;;;;;;;25.63;15.57;;;25.80;99.90;;;;;;4973794;28;20126;-58
2022/05/18 10:27:44;;;;;;;21.63;15.60;;;25.60;99.90;;;;;;4973143;28;20569;-59
2022/05/18 10:30:28;;;;;;;21.58;16.13;;;25.80;99.90;;;;;;4973610;28;20035;-61
2022/05/18 10:32:58;;;;;;;21.92;15.10;;;25.70;99.90;;;;;;4973704;28;20395;-59
2022/05/18 10:35:44;;;;;;;20.77;15.23;;;25.80;99.90;;;;;;4973582;28;20427;-59
2022/05/18 10:38:27;;;;;;;22.77;15.43;;;25.80;99.90;;;;;;4972657;28;20066;-58
2022/05/18 10:41:05;;;;;;;19.95;15.93;;;26.00;99.90;;;;;;4973381;28;20113;-56
2022/05/18 10:43:38;;;;;;;23.50;16.48;;;25.70;99.90;;;;;;4972692;28;20047;-58
2022/05/18 10:46:18;;;;;;;20.00;15.93;;;25.50;99.90;;;;;;4971871;28;20047;-58
2022/05/18 10:48:55;;;;;;;21.95;15.63;;;25.70;99.90;;;;;;4953000;28;20306;-58
2022/05/18 10:51:41;;;;;;;23.13;15.75;;;25.80;99.90;;;;;;4971685;28;20045;-58
2022/05/18 10:54:23;;;;;;;18.67;14.23;;;25.70;99.90;;;;;;4971604;28;20053;-59
2022/05/18 10:56:49;;;;;;;20.27;14.60;;;25.70;99.90;;;;;;4972160;28;20039;-58
2022/05/18 10:59:30;;;;;;;19.73;14.27;;;25.70;99.90;;;;;;4953610;28;20460;-57
2022/05/18 11:02:11;;;;;;;21.27;15.18;;;25.80;99.90;;;;;;4972003;28;20406;-59
2022/05/18 11:04:51;;;;;;;21.55;15.27;;;25.70;99.90;;;;;;4971161;28;20483;-58
2022/05/18 11:07:24;;;;;;;23.00;15.27;;;26.00;99.90;;;;;;4968059;28;20394;-59
2022/05/18 11:09:50;;;;;;;24.02;15.20;;;25.90;99.90;;;;;;4970242;28;20080;-57
2022/05/18 11:12:45;;;;;;;19.45;14.30;;;25.70;99.90;;;;;;4972083;28;20035;-60
2022/05/18 11:15:19;;;;;;;19.42;14.45;;;26.00;99.90;;;;;;4963708;28;20043;-58
2022/05/18 11:17:50;;;;;;;20.17;14.82;;;26.00;99.90;;;;;;4972606;28;20046;-59
2022/05/18 11:20:18;;;;;;;17.75;14.30;;;26.20;99.90;;;;;;4972374;28;20449;-59
2022/05/18 11:22:59;;;;;;;18.70;14.02;;;26.50;99.90;;;;;;4972610;28;20144;-61
2022/05/18 11:25:43;;;;;;;19.05;13.20;;;26.80;99.90;;;;;;4971741;28;20039;-59
2022/05/18 11:28:38;;;;;;;19.77;13.65;;;26.90;99.90;;;;;;4971333;28;20109;-58
2022/05/18 11:31:09;;;;;;;19.23;13.70;;;26.50;99.90;;;;;;4943754;28;20039;-59
2022/05/18 11:33:58;;;;;;;19.10;14.43;;;26.70;99.90;;;;;;4972132;28;20038;-59
2022/05/18 11:36:46;;;;;;;16.77;12.18;;;27.20;99.90;;;;;;4965369;28;20507;-59
2022/05/18 11:39:20;;;;;;;16.88;11.93;;;27.30;99.90;;;;;;4971164;28;20041;-59
2022/05/18 11:41:55;;;;;;;16.42;11.65;;;27.40;99.90;;;;;;4971358;28;20101;-59
2022/05/18 11:44:34;;;;;;;17.08;10.65;;;27.10;99.90;;;;;;4972125;28;20038;-61
2022/05/18 11:47:15;;;;;;;13.98;9.75;;;26.90;99.90;;;;;;4972101;28;20042;-58
2022/05/18 11:49:58;;;;;;;14.27;9.85;;;26.70;99.90;;;;;;4971332;28;20054;-59
2022/05/18 11:52:43;;;;;;;16.85;9.38;;;27.10;99.90;;;;;;4970593;28;20043;-60
2022/05/18 11:55:36;;;;;;;13.93;8.02;;;27.00;99.90;;;;;;4972127;28;20129;-60
2022/05/18 11:58:47;;;;;;;13.40;9.00;;;27.10;99.90;;;;;;4970631;28;20050;-59
2022/05/18 12:01:30;;;;;;;12.93;8.80;;;27.40;99.90;;;;;;4969551;28;20101;-60
2022/05/18 12:04:28;;;;;;;13.18;9.82;;;27.60;99.90;;;;;;4971586;28;20034;-59
2022/05/18 12:07:04;;;;;;;15.25;8.23;;;27.80;99.90;;;;;;4970870;28;20053;-59
2022/05/18 12:09:45;;;;;;;15.18;8.63;;;28.00;99.90;;;;;;4970616;28;20414;-59
2022/05/18 12:12:25;;;;;;;13.48;8.02;;;27.70;99.90;;;;;;4951591;28;20121;-59
2022/05/18 12:14:59;;;;;;;12.32;7.78;;;27.20;99.90;;;;;;4971257;28;20074;-59
2022/05/18 12:17:52;;;;;;;14.18;7.53;;;27.20;99.90;;;;;;4971236;28;20053;-58
2022/05/18 12:20:35;;;;;;;11.73;7.60;;;27.40;99.90;;;;;;4969922;28;20396;-59
2022/05/18 12:23:04;;;;;;;16.33;9.07;;;27.10;99.90;;;;;;4971099;28;20074;-59
2022/05/18 12:25:32;;;;;;;16.42;8.93;;;27.00;99.90;;;;;;4971264;28;20513;-60
2022/05/18 12:28:00;;;;;;;13.75;9.75;;;27.00;99.90;;;;;;4970681;28;20582;-58
2022/05/18 12:30:29;;;;;;;15.43;8.90;;;26.80;99.90;;;;;;4971085;28;20066;-61
2022/05/18 12:32:56;;;;;;;14.68;9.75;;;26.60;99.90;;;;;;4970670;28;20086;-60
2022/05/18 12:35:48;;;;;;;16.83;10.35;;;26.20;99.90;;;;;;4970834;28;20039;-58
2022/05/18 12:38:36;;;;;;;14.55;9.50;;;26.00;99.90;;;;;;4968367;28;20054;-59
2022/05/18 12:41:08;;;;;;;16.85;10.50;;;26.40;99.90;;;;;;4970536;28;20043;-58
2022/05/18 12:43:40;;;;;;;18.67;11.00;;;26.50;99.90;;;;;;4974701;28;20053;-59
2022/05/18 12:46:15;;;;;;;17.52;11.20;;;26.50;99.90;;;;;;4957527;28;20050;-58
2022/05/18 12:48:55;;;;;;;18.35;12.65;;;26.50;99.90;;;;;;4974674;28;20074;-59
2022/05/18 12:51:32;;;;;;;20.55;12.25;;;26.50;99.90;;;;;;4975186;28;20467;-58
2022/05/18 12:54:10;;;;;;;16.90;12.35;;;26.40;99.90;;;;;;4973547;28;20046;-60
2022/05/18 12:56:35;;;;;;;19.48;11.70;;;26.60;99.90;;;;;;4975007;28;20047;-58
2022/05/18 12:59:08;;;;;;;20.02;12.00;;;26.80;99.90;;;;;;4974343;28;20145;-58
2022/05/18 13:01:45;;;;;;;17.40;12.23;;;26.60;99.90;;;;;;4975332;28;20125;-59
2022/05/18 13:04:14;;;;;;;17.35;11.38;;;26.20;99.90;;;;;;4974926;28;20491;-58
2022/05/18 13:06:54;;;;;;;16.55;11.50;;;26.70;99.90;;;;;;4957603;28;20093;-60
2022/05/18 13:09:29;;;;;;;16.45;11.13;;;26.70;99.90;;;;;;4974893;28;20042;-59
2022/05/18 13:12:02;;;;;;;19.30;12.13;;;27.00;99.90;;;;;;4973636;28;20042;-58